createdAt,value
2023-08-05T00:00:52.360Z,99384.60
2023-08-05T00:03:29.027Z,99390.20
2023-08-05T00:05:57.001Z,99388.20
2023-08-05T00:08:25.757Z,99391.20
2023-08-05T00:10:54.648Z,99390.20
2023-08-05T00:13:22.680Z,99388.60
2023-08-05T00:15:51.573Z,99385.60
2023-08-05T00:18:19.634Z,99375.60
2023-08-05T00:20:50.125Z,99374.60
2023-08-05T00:23:18.096Z,99373.40
2023-08-05T00:25:46.238Z,99373.60
2023-08-05T00:28:14.113Z,99366.40
2023-08-05T00:30:42.130Z,99370.40
2023-08-05T00:33:10.049Z,99368.40
2023-08-05T00:35:39.062Z,99364.20
2023-08-05T00:38:06.904Z,99357.60
2023-08-05T00:40:36.868Z,99360.00
2023-08-05T00:43:04.983Z,99359.60
2023-08-05T00:45:34.379Z,99355.20
2023-08-05T00:48:02.534Z,99354.20
2023-08-05T00:50:30.517Z,99354.40
2023-08-05T00:52:59.511Z,99362.00
2023-08-05T00:55:27.916Z,99367.60
2023-08-05T00:57:55.866Z,99367.20
2023-08-05T01:00:24.293Z,99369.60
2023-08-05T01:02:52.416Z,99370.00
2023-08-05T01:05:22.234Z,99372.60
2023-08-05T01:07:50.345Z,99370.80
2023-08-05T01:10:18.078Z,99368.60
2023-08-05T01:12:46.026Z,99365.20
2023-08-05T01:15:13.898Z,99361.80
2023-08-05T01:17:41.850Z,99358.40
2023-08-05T01:20:10.277Z,99366.20
2023-08-05T01:22:42.380Z,99368.00
2023-08-05T01:25:27.062Z,99363.60
2023-08-05T01:27:56.065Z,99358.40
2023-08-05T01:30:25.183Z,99354.40
2023-08-05T01:32:53.592Z,99344.80
2023-08-05T01:35:22.251Z,99347.80
2023-08-05T01:37:50.570Z,99343.40
2023-08-05T01:40:18.673Z,99351.80
2023-08-05T01:42:46.668Z,99353.00
2023-08-05T01:45:14.767Z,99355.80
2023-08-05T01:47:42.846Z,99353.80
2023-08-05T01:50:10.940Z,99355.00
2023-08-05T01:52:39.353Z,99357.80
2023-08-05T01:55:07.511Z,99355.20
2023-08-05T01:57:35.704Z,99356.80
2023-08-05T02:00:04.250Z,99356.80
2023-08-05T02:02:41.717Z,99351.60
2023-08-05T02:05:11.028Z,99345.40
2023-08-05T02:07:39.212Z,99341.20
2023-08-05T02:10:07.594Z,99339.20
2023-08-05T02:12:35.612Z,99329.00
2023-08-05T02:15:03.687Z,99330.00
2023-08-05T02:17:31.678Z,99330.60
2023-08-05T02:19:59.801Z,99328.80
2023-08-05T02:22:28.872Z,99328.80
2023-08-05T02:24:57.004Z,99321.40
2023-08-05T02:27:25.601Z,99330.20
2023-08-05T02:29:53.609Z,99327.80
2023-08-05T02:32:21.659Z,99338.60
2023-08-05T02:34:49.483Z,99339.20
2023-08-05T02:37:17.529Z,99341.20
2023-08-05T02:39:45.464Z,99340.60
2023-08-05T02:42:14.392Z,99336.80
2023-08-05T02:44:43.383Z,99337.40
2023-08-05T02:47:12.539Z,99344.40
2023-08-05T02:49:40.669Z,99338.60
2023-08-05T02:52:08.610Z,99342.80
2023-08-05T02:54:36.472Z,99343.60
2023-08-05T02:57:04.901Z,99346.80
2023-08-05T02:59:32.978Z,99349.80
2023-08-05T03:02:01.078Z,99356.00
2023-08-05T03:04:29.080Z,99359.40
2023-08-05T03:06:57.047Z,99365.60
2023-08-05T03:09:24.853Z,99366.00
2023-08-05T03:11:52.588Z,99367.20
2023-08-05T03:14:20.507Z,99368.00
2023-08-05T03:16:49.639Z,99370.60
2023-08-05T03:19:20.365Z,99370.00
2023-08-05T03:21:48.850Z,99369.40
2023-08-05T03:24:16.862Z,99368.80
2023-08-05T03:26:47.683Z,99370.40
2023-08-05T03:29:16.506Z,99364.80
2023-08-05T03:31:45.091Z,99367.40
2023-08-05T03:34:13.935Z,99361.00
2023-08-05T03:36:41.926Z,99365.20
2023-08-05T03:39:10.127Z,99363.60
2023-08-05T03:41:38.172Z,99364.80
2023-08-05T03:44:06.109Z,99363.20
2023-08-05T03:46:34.123Z,99364.60
2023-08-05T03:49:03.576Z,99366.60
2023-08-05T03:51:31.800Z,99372.20
2023-08-05T03:54:01.896Z,99371.60
2023-08-05T03:56:30.049Z,99374.20
2023-08-05T03:58:58.753Z,99377.00
2023-08-05T04:01:27.985Z,99380.00
2023-08-05T04:03:56.843Z,99390.00
2023-08-05T04:06:26.761Z,99390.80
2023-08-05T04:08:55.373Z,99387.40
2023-08-05T04:11:23.381Z,99387.80
2023-08-05T04:13:54.058Z,99380.00
2023-08-05T04:16:24.045Z,99389.20
2023-08-05T04:18:53.544Z,99390.40
2023-08-05T04:21:24.668Z,99394.20
2023-08-05T04:23:53.235Z,99392.40
2023-08-05T04:26:21.158Z,99392.40
2023-08-05T04:28:49.151Z,99389.00
2023-08-05T04:31:17.872Z,99388.20
2023-08-05T04:33:48.120Z,99392.20
2023-08-05T04:36:16.064Z,99400.60
2023-08-05T04:38:44.029Z,99401.40
2023-08-05T04:41:11.926Z,99407.60
2023-08-05T04:43:39.839Z,99405.60
2023-08-05T04:46:07.772Z,99407.80
2023-08-05T04:48:35.782Z,99403.40
2023-08-05T04:51:04.011Z,99405.20
2023-08-05T04:53:31.811Z,99407.60
2023-08-05T04:55:59.667Z,99402.40
2023-08-05T04:58:28.238Z,99407.60
2023-08-05T05:00:59.442Z,99407.40
2023-08-05T05:03:27.472Z,99408.60
2023-08-05T05:05:56.466Z,99410.60
2023-08-05T05:08:25.089Z,99407.80
2023-08-05T05:10:53.212Z,99412.00
2023-08-05T05:13:21.125Z,99405.80
2023-08-05T05:15:49.675Z,99419.40
2023-08-05T05:18:17.541Z,99413.40
2023-08-05T05:20:49.437Z,99412.20
2023-08-05T05:23:17.922Z,99408.40
2023-08-05T05:25:45.905Z,99399.00
2023-08-05T05:28:13.838Z,99405.00
2023-08-05T05:30:41.827Z,99389.80
2023-08-05T05:33:09.756Z,99391.60
2023-08-05T05:35:37.744Z,99387.20
2023-08-05T05:38:05.700Z,99369.60
2023-08-05T05:40:33.619Z,99367.00
2023-08-05T05:43:01.598Z,99368.40
2023-08-05T05:45:29.588Z,99371.80
2023-08-05T05:47:57.690Z,99358.20
2023-08-05T05:50:25.609Z,99358.20
2023-08-05T05:52:55.484Z,99357.40
2023-08-05T05:55:23.485Z,99352.00
2023-08-05T05:57:51.346Z,99348.20
2023-08-05T06:00:19.469Z,99346.40
2023-08-05T06:02:47.354Z,99349.40
2023-08-05T06:05:15.447Z,99349.60
2023-08-05T06:07:43.527Z,99344.60
2023-08-05T06:10:11.743Z,99352.20
2023-08-05T06:12:39.615Z,99354.00
2023-08-05T06:15:09.004Z,99351.20
2023-08-05T06:17:37.112Z,99340.40
2023-08-05T06:20:05.861Z,99339.40
2023-08-05T06:22:33.764Z,99334.20
2023-08-05T06:25:01.685Z,99332.40
2023-08-05T06:27:30.197Z,99335.40
2023-08-05T06:29:58.332Z,99327.40
2023-08-05T06:32:26.255Z,99331.40
2023-08-05T06:34:54.922Z,99337.40
2023-08-05T06:37:23.144Z,99342.60
2023-08-05T06:39:51.189Z,99329.80
2023-08-05T06:42:19.257Z,99336.40
2023-08-05T06:44:50.705Z,99343.80
2023-08-05T06:47:18.704Z,99320.60
2023-08-05T06:49:46.681Z,99319.60
2023-08-05T06:52:14.747Z,99323.00
2023-08-05T06:54:42.609Z,99325.20
2023-08-05T06:57:10.595Z,99333.20
2023-08-05T06:59:38.592Z,99336.20
2023-08-05T07:02:07.209Z,99318.80
2023-08-05T07:04:35.252Z,99332.00
2023-08-05T07:07:03.081Z,99323.80
2023-08-05T07:09:31.333Z,99329.40
2023-08-05T07:11:59.310Z,99343.40
2023-08-05T07:14:29.558Z,99327.60
2023-08-05T07:16:57.289Z,99335.80
2023-08-05T07:19:25.225Z,99327.80
2023-08-05T07:21:53.329Z,99345.00
2023-08-05T07:24:21.624Z,99351.00
2023-08-05T07:26:49.527Z,99343.00
2023-08-05T07:29:17.418Z,99342.20
2023-08-05T07:31:45.442Z,99355.00
2023-08-05T07:34:14.126Z,99361.00
2023-08-05T07:36:44.502Z,99361.40
2023-08-05T07:39:12.682Z,99357.20
2023-08-05T07:41:40.792Z,99359.40
2023-08-05T07:44:10.967Z,99357.20
2023-08-05T07:46:41.851Z,99353.60
2023-08-05T07:49:12.228Z,99339.40
2023-08-05T07:51:46.441Z,99355.00
2023-08-05T07:54:15.083Z,99354.20
2023-08-05T07:56:43.273Z,99356.60
2023-08-05T07:59:14.114Z,99356.40
2023-08-05T08:01:46.679Z,99357.60
2023-08-05T08:04:16.217Z,99346.60
2023-08-05T08:06:46.400Z,99359.80
2023-08-05T08:09:14.712Z,99359.60
2023-08-05T08:11:42.744Z,99359.40
2023-08-05T08:14:10.765Z,99347.40
2023-08-05T08:16:38.725Z,99348.60
2023-08-05T08:19:08.555Z,99336.00
2023-08-05T08:21:36.531Z,99355.20
2023-08-05T08:24:04.530Z,99352.80
2023-08-05T08:26:32.501Z,99356.80
2023-08-05T08:29:00.346Z,99342.80
2023-08-05T08:31:31.712Z,99340.80
2023-08-05T08:33:59.829Z,99341.00
2023-08-05T08:36:27.701Z,99336.80
2023-08-05T08:38:55.640Z,99338.00
2023-08-05T08:41:24.813Z,99340.80
2023-08-05T08:43:52.873Z,99338.60
2023-08-05T08:46:20.887Z,99327.80
2023-08-05T08:48:52.724Z,99327.20
2023-08-05T08:51:21.993Z,99324.80
2023-08-05T08:53:49.973Z,99338.40
2023-08-05T08:56:17.954Z,99332.60
2023-08-05T08:58:46.020Z,99329.40
2023-08-05T09:01:14.365Z,99323.60
2023-08-05T09:03:42.431Z,99313.80
2023-08-05T09:06:10.532Z,99317.20
2023-08-05T09:08:38.505Z,99312.60
2023-08-05T09:11:06.515Z,99314.00
2023-08-05T09:13:34.422Z,99316.00
2023-08-05T09:16:02.591Z,99306.00
2023-08-05T09:18:31.822Z,99315.20
2023-08-05T09:21:00.887Z,99312.60
2023-08-05T09:23:28.993Z,99309.60
2023-08-05T09:25:57.008Z,99302.60
2023-08-05T09:28:34.222Z,99303.20
2023-08-05T09:31:17.562Z,99294.40
2023-08-05T09:33:45.840Z,99287.80
2023-08-05T09:36:14.421Z,99302.40
2023-08-05T09:38:46.286Z,99293.20
2023-08-05T09:41:15.096Z,99303.20
2023-08-05T09:43:46.828Z,99292.00
2023-08-05T09:46:15.234Z,99305.00
2023-08-05T09:48:43.964Z,99295.80
2023-08-05T09:51:14.892Z,99288.20
2023-08-05T09:53:43.007Z,99300.60
2023-08-05T09:56:11.638Z,99304.60
2023-08-05T09:58:39.652Z,99296.20
2023-08-05T10:01:08.848Z,99286.20
2023-08-05T10:03:38.840Z,99293.80
2023-08-05T10:06:07.614Z,99292.80
2023-08-05T10:08:37.488Z,99292.00
2023-08-05T10:11:05.627Z,99300.00
2023-08-05T10:13:38.400Z,99285.00
2023-08-05T10:16:07.618Z,99278.60
2023-08-05T10:18:36.258Z,99291.00
2023-08-05T10:21:08.759Z,99278.40
2023-08-05T10:23:37.221Z,99286.60
2023-08-05T10:26:05.802Z,99271.80
2023-08-05T10:28:36.544Z,99284.20
2023-08-05T10:31:05.936Z,99277.20
2023-08-05T10:34:10.209Z,99287.20
2023-08-05T10:36:43.053Z,99269.60
2023-08-05T10:39:44.969Z,99276.60
2023-08-05T10:42:31.442Z,99270.80
2023-08-05T10:45:00.022Z,99279.40
2023-08-05T10:47:28.129Z,99265.40
2023-08-05T10:50:01.447Z,99275.60
2023-08-05T10:52:30.660Z,99257.00
2023-08-05T10:54:58.835Z,99266.60
2023-08-05T10:57:35.932Z,99262.60
2023-08-05T11:00:04.605Z,99252.80
2023-08-05T11:02:32.799Z,99251.80
2023-08-05T11:05:08.100Z,99246.80
2023-08-05T11:07:42.318Z,99243.20
2023-08-05T11:10:10.562Z,99232.80
2023-08-05T11:12:38.565Z,99227.00
2023-08-05T11:15:07.038Z,99225.00
2023-08-05T11:17:35.079Z,99213.80
2023-08-05T11:20:03.855Z,99211.60
2023-08-05T11:22:34.099Z,99203.80
2023-08-05T11:25:03.156Z,99206.40
2023-08-05T11:27:34.890Z,99209.20
2023-08-05T11:30:15.915Z,99207.20
2023-08-05T11:32:59.403Z,99205.80
2023-08-05T11:35:27.685Z,99193.20
2023-08-05T11:37:56.090Z,99209.80
2023-08-05T11:40:24.830Z,99194.40
2023-08-05T11:42:53.724Z,99197.60
2023-08-05T11:45:21.961Z,99194.20
2023-08-05T11:47:49.995Z,99191.80
2023-08-05T11:50:17.986Z,99192.60
2023-08-05T11:52:46.722Z,99185.60
2023-08-05T11:55:14.671Z,99180.60
2023-08-05T11:57:42.577Z,99173.80
2023-08-05T12:00:11.478Z,99177.80
2023-08-05T12:02:39.528Z,99173.00
2023-08-05T12:05:11.856Z,99168.60
2023-08-05T12:07:41.485Z,99162.20
2023-08-05T12:10:16.456Z,99155.00
2023-08-05T12:12:45.824Z,99157.80
2023-08-05T12:15:14.506Z,99146.60
2023-08-05T12:17:47.466Z,99147.00
2023-08-05T12:20:19.143Z,99143.60
2023-08-05T12:22:47.499Z,99147.00
2023-08-05T12:25:15.544Z,99142.40
2023-08-05T12:27:43.539Z,99142.20
2023-08-05T12:30:11.852Z,99155.20
2023-08-05T12:32:40.365Z,99140.20
2023-08-05T12:35:09.786Z,99131.20
2023-08-05T12:37:38.609Z,99122.80
2023-08-05T12:40:15.385Z,99111.20
2023-08-05T12:42:43.316Z,99119.20
2023-08-05T12:45:11.422Z,99114.20
2023-08-05T12:47:40.254Z,99109.20
2023-08-05T12:50:09.164Z,99098.40
2023-08-05T12:52:37.283Z,99094.80
2023-08-05T12:55:05.854Z,99091.60
2023-08-05T12:57:33.968Z,99089.40
2023-08-05T13:00:02.420Z,99065.00
2023-08-05T13:02:30.700Z,99069.40
2023-08-05T13:04:59.024Z,99069.00
2023-08-05T13:07:27.143Z,99059.00
2023-08-05T13:09:55.133Z,99059.20
2023-08-05T13:12:23.253Z,99056.40
2023-08-05T13:14:51.210Z,99056.40
2023-08-05T13:17:19.278Z,99055.60
2023-08-05T13:19:47.266Z,99054.00
2023-08-05T13:22:15.212Z,99051.00
2023-08-05T13:24:43.335Z,99049.80
2023-08-05T13:27:11.250Z,99056.40
2023-08-05T13:29:39.306Z,99043.20
2023-08-05T13:32:07.395Z,99049.20
2023-08-05T13:34:35.216Z,99044.00
2023-08-05T13:37:03.118Z,99042.00
2023-08-05T13:39:31.064Z,99028.60
2023-08-05T13:42:01.339Z,99037.40
2023-08-05T13:44:29.937Z,99031.80
2023-08-05T13:46:57.954Z,99026.20
2023-08-05T13:49:26.102Z,99026.40
2023-08-05T13:51:54.381Z,99018.80
2023-08-05T13:54:22.429Z,99015.60
2023-08-05T13:56:50.984Z,99006.20
2023-08-05T13:59:19.042Z,98994.40
2023-08-05T14:01:48.085Z,98989.00
2023-08-05T14:04:16.068Z,98989.40
2023-08-05T14:06:44.051Z,98977.40
2023-08-05T14:09:11.900Z,98986.40
2023-08-05T14:11:39.762Z,98984.40
2023-08-05T14:14:07.565Z,98976.80
2023-08-05T14:16:37.344Z,98977.60
2023-08-05T14:19:05.424Z,98966.60
2023-08-05T14:21:33.498Z,98974.00
2023-08-05T14:24:01.884Z,98971.40
2023-08-05T14:26:31.590Z,98971.80
2023-08-05T14:29:00.626Z,98959.00
2023-08-05T14:31:28.506Z,98962.00
2023-08-05T14:33:56.817Z,98967.00
2023-08-05T14:36:26.762Z,98951.00
2023-08-05T14:38:54.794Z,98957.20
2023-08-05T14:41:24.018Z,98949.20
2023-08-05T14:43:52.657Z,98931.40
2023-08-05T14:46:20.697Z,98942.00
2023-08-05T14:48:48.951Z,98925.80
2023-08-05T14:51:18.199Z,98934.80
2023-08-05T14:53:46.288Z,98901.60
2023-08-05T14:56:14.201Z,98926.40
2023-08-05T14:58:42.269Z,98921.60
2023-08-05T15:01:18.922Z,98906.20
2023-08-05T15:03:48.143Z,98906.40
2023-08-05T15:06:17.033Z,98897.80
2023-08-05T15:08:45.553Z,98897.80
2023-08-05T15:11:13.860Z,98896.00
2023-08-05T15:13:41.824Z,98883.00
2023-08-05T15:16:09.877Z,98873.00
2023-08-05T15:18:37.832Z,98874.60
2023-08-05T15:21:05.809Z,98868.40
2023-08-05T15:23:34.671Z,98855.80
2023-08-05T15:26:03.152Z,98861.40
2023-08-05T15:28:31.539Z,98850.60
2023-08-05T15:30:59.686Z,98849.00
2023-08-05T15:33:30.384Z,98840.00
2023-08-05T15:35:58.248Z,98830.40
2023-08-05T15:38:26.196Z,98826.20
2023-08-05T15:41:00.593Z,98818.20
2023-08-05T15:43:28.812Z,98821.60
2023-08-05T15:45:58.944Z,98809.00
2023-08-05T15:48:26.999Z,98805.40
2023-08-05T15:50:55.228Z,98809.40
2023-08-05T15:53:23.289Z,98809.20
2023-08-05T15:56:01.968Z,98818.20
2023-08-05T15:58:30.101Z,98819.60
2023-08-05T16:01:01.952Z,98820.20
2023-08-05T16:03:29.979Z,98812.80
2023-08-05T16:06:08.427Z,98811.60
2023-08-05T16:08:38.497Z,98798.80
2023-08-05T16:11:11.494Z,98788.40
2023-08-05T16:13:39.615Z,98775.40
2023-08-05T16:16:15.594Z,98775.60
2023-08-05T16:18:45.318Z,98770.00
2023-08-05T16:21:17.564Z,98761.80
2023-08-05T16:23:45.990Z,98770.20
2023-08-05T16:26:14.936Z,98769.80
2023-08-05T16:28:43.379Z,98768.60
2023-08-05T16:31:11.334Z,98765.60
2023-08-05T16:33:40.039Z,98763.20
2023-08-05T16:36:09.377Z,98764.20
2023-08-05T16:38:37.586Z,98759.40
2023-08-05T16:41:05.497Z,98751.00
2023-08-05T16:43:33.410Z,98752.20
2023-08-05T16:46:01.375Z,98752.00
2023-08-05T16:48:29.302Z,98749.80
2023-08-05T16:50:57.312Z,98746.20
2023-08-05T16:53:25.303Z,98742.60
2023-08-05T16:55:53.316Z,98741.80
2023-08-05T16:58:21.250Z,98736.20
2023-08-05T17:00:49.403Z,98730.00
2023-08-05T17:03:17.458Z,98735.00
2023-08-05T17:05:45.314Z,98746.00
2023-08-05T17:08:13.397Z,98733.60
2023-08-05T17:10:41.357Z,98737.20
2023-08-05T17:13:09.427Z,98739.40
2023-08-05T17:15:37.289Z,98739.00
2023-08-05T17:18:05.925Z,98738.80
2023-08-05T17:20:34.078Z,98745.20
2023-08-05T17:23:01.956Z,98740.60
2023-08-05T17:25:29.882Z,98742.20
2023-08-05T17:27:58.379Z,98731.80
2023-08-05T17:30:26.431Z,98736.20
2023-08-05T17:32:54.462Z,98743.20
2023-08-05T17:35:22.419Z,98742.40
2023-08-05T17:37:50.478Z,98739.20
2023-08-05T17:40:18.417Z,98741.40
2023-08-05T17:42:46.428Z,98744.20
2023-08-05T17:45:16.331Z,98748.40
2023-08-05T17:47:44.543Z,98748.60
2023-08-05T17:50:12.466Z,98757.40
2023-08-05T17:52:40.469Z,98756.20
2023-08-05T17:55:08.571Z,98763.40
2023-08-05T17:57:36.551Z,98765.20
2023-08-05T18:00:05.321Z,98766.80
2023-08-05T18:02:33.482Z,98764.60
2023-08-05T18:05:01.492Z,98760.20
2023-08-05T18:07:29.333Z,98756.20
2023-08-05T18:09:59.491Z,98766.40
2023-08-05T18:12:28.779Z,98767.40
2023-08-05T18:14:56.747Z,98776.40
2023-08-05T18:17:24.596Z,98771.40
2023-08-05T18:19:52.498Z,98777.80
2023-08-05T18:22:20.531Z,98769.60
2023-08-05T18:24:48.602Z,98779.40
2023-08-05T18:27:17.382Z,98781.60
2023-08-05T18:29:45.359Z,98795.00
2023-08-05T18:32:16.387Z,98799.40
2023-08-05T18:34:44.266Z,98810.80
2023-08-05T18:37:12.449Z,98812.80
2023-08-05T18:39:40.344Z,98811.20
2023-08-05T18:42:08.471Z,98816.40
2023-08-05T18:44:37.552Z,98813.80
2023-08-05T18:47:06.267Z,98803.60
2023-08-05T18:49:34.098Z,98795.20
2023-08-05T18:52:02.350Z,98793.80
2023-08-05T18:54:30.452Z,98794.00
2023-08-05T18:56:58.344Z,98801.40
2023-08-05T18:59:26.460Z,98803.80
2023-08-05T19:01:54.620Z,98802.40
2023-08-05T19:04:23.022Z,98797.60
2023-08-05T19:06:51.178Z,98797.20
2023-08-05T19:09:19.206Z,98796.20
2023-08-05T19:11:48.130Z,98796.60
2023-08-05T19:14:16.039Z,98798.00
2023-08-05T19:16:44.245Z,98801.00
2023-08-05T19:19:12.061Z,98799.60
2023-08-05T19:21:40.298Z,98798.80
2023-08-05T19:24:08.265Z,98804.20
2023-08-05T19:26:40.389Z,98803.80
2023-08-05T19:29:09.137Z,98807.40
2023-08-05T19:31:37.369Z,98813.20
2023-08-05T19:34:06.511Z,98809.40
2023-08-05T19:36:34.470Z,98810.80
2023-08-05T19:39:02.434Z,98806.60
2023-08-05T19:41:30.927Z,98807.20
2023-08-05T19:43:59.008Z,98803.40
2023-08-05T19:46:27.141Z,98799.20
2023-08-05T19:48:55.240Z,98791.60
2023-08-05T19:51:23.276Z,98806.40
2023-08-05T19:53:51.633Z,98788.60
2023-08-05T19:56:19.686Z,98793.80
2023-08-05T19:58:49.580Z,98772.40
2023-08-05T20:01:17.757Z,98783.00
2023-08-05T20:03:46.044Z,98790.40
2023-08-05T20:06:13.905Z,98790.60
2023-08-05T20:08:43.333Z,98793.00
2023-08-05T20:11:12.772Z,98789.80
2023-08-05T20:13:41.164Z,98776.80
2023-08-05T20:16:09.148Z,98769.40
2023-08-05T20:18:37.131Z,98772.40
2023-08-05T20:21:05.509Z,98765.20
2023-08-05T20:23:34.889Z,98765.00
2023-08-05T20:26:09.945Z,98761.80
2023-08-05T20:28:37.952Z,98773.40
2023-08-05T20:31:05.859Z,98783.20
2023-08-05T20:33:33.897Z,98788.20
2023-08-05T20:36:02.132Z,98790.80
2023-08-05T20:38:30.029Z,98785.80
2023-08-05T20:40:57.972Z,98785.80
2023-08-05T20:43:25.912Z,98799.80
2023-08-05T20:45:54.486Z,98813.60
2023-08-05T20:48:22.673Z,98854.40
2023-08-05T20:50:57.379Z,98903.20
2023-08-05T20:53:25.392Z,98941.40
2023-08-05T20:55:55.229Z,98944.80
2023-08-05T20:58:23.264Z,98946.40
2023-08-05T21:01:00.189Z,98948.80
2023-08-05T21:03:28.195Z,98937.20
2023-08-05T21:06:02.456Z,98919.60
2023-08-05T21:08:30.841Z,98907.00
2023-08-05T21:11:08.828Z,98898.40
2023-08-05T21:13:40.197Z,98921.00
2023-08-05T21:16:08.522Z,98925.60
2023-08-05T21:18:36.432Z,98939.00
2023-08-05T21:21:04.513Z,98942.80
2023-08-05T21:23:32.715Z,98934.40
2023-08-05T21:26:00.847Z,98941.60
2023-08-05T21:28:28.931Z,98940.20
2023-08-05T21:30:58.095Z,98940.20
2023-08-05T21:33:26.632Z,98941.60
2023-08-05T21:35:55.303Z,98939.00
2023-08-05T21:38:23.262Z,98938.60
2023-08-05T21:40:51.458Z,98937.20
2023-08-05T21:43:19.584Z,98936.40
2023-08-05T21:45:51.822Z,98944.20
2023-08-05T21:48:20.605Z,98947.00
2023-08-05T21:50:48.683Z,98947.60
2023-08-05T21:53:16.842Z,98944.60
2023-08-05T21:55:45.746Z,98938.20
2023-08-05T21:58:13.913Z,98941.20
2023-08-05T22:00:41.990Z,98940.40
2023-08-05T22:03:11.743Z,98941.00
2023-08-05T22:05:40.100Z,98940.40
2023-08-05T22:08:08.158Z,98942.20
2023-08-05T22:10:37.469Z,98938.00
2023-08-05T22:13:05.431Z,98942.80
2023-08-05T22:15:33.412Z,98937.40
2023-08-05T22:18:01.510Z,98940.20
2023-08-05T22:20:29.428Z,98944.80
2023-08-05T22:22:57.668Z,98946.20
2023-08-05T22:25:25.632Z,98956.60
2023-08-05T22:27:53.651Z,98949.80
2023-08-05T22:30:21.504Z,98944.00
2023-08-05T22:32:49.504Z,98940.60
2023-08-05T22:35:17.477Z,98938.40
2023-08-05T22:37:45.315Z,98932.40
2023-08-05T22:40:13.125Z,98927.20
2023-08-05T22:42:41.132Z,98922.20
2023-08-05T22:45:09.579Z,98914.00
2023-08-05T22:47:37.599Z,98907.00
2023-08-05T22:50:06.116Z,98911.60
2023-08-05T22:52:33.931Z,98912.60
2023-08-05T22:55:01.887Z,98910.00
2023-08-05T22:57:29.841Z,98910.80
2023-08-05T22:59:57.924Z,98911.00
2023-08-05T23:02:26.016Z,98911.60
2023-08-05T23:04:54.147Z,98917.40
2023-08-05T23:07:22.377Z,98905.60
2023-08-05T23:09:52.075Z,98893.00
2023-08-05T23:12:21.786Z,98879.40
2023-08-05T23:14:50.978Z,98877.80
2023-08-05T23:17:19.042Z,98878.40
2023-08-05T23:19:47.938Z,98875.80
2023-08-05T23:22:16.768Z,98875.40
2023-08-05T23:24:44.842Z,98874.80
2023-08-05T23:27:12.735Z,98874.00
2023-08-05T23:29:40.728Z,98871.20
2023-08-05T23:32:08.628Z,98879.40
2023-08-05T23:34:36.675Z,98876.80
2023-08-05T23:37:04.778Z,98875.00
2023-08-05T23:39:32.977Z,98867.80
2023-08-05T23:42:00.848Z,98864.00
2023-08-05T23:44:28.755Z,98865.00
2023-08-05T23:46:56.716Z,98866.20
2023-08-05T23:49:24.720Z,98864.20
2023-08-05T23:51:52.886Z,98867.20
2023-08-05T23:54:21.190Z,98865.60
2023-08-05T23:56:49.287Z,98860.60
2023-08-05T23:59:17.123Z,98861.20
